Aviation Digital Data Service (ADDS)

Output produced by METARs form (0414 UTC 19 August 2019)
found at http://www.aviationweather.gov/metar/data/
 
METAR text: UBBG 190400Z 28006KT 240V300 9999 FEW100 26/10 Q1014 R30/CLRD// NOSIG
Conditions at: UBBG (GYANDZHA , AZ) observed 0400 UTC 19 August 2019
Temperature: 26.0°C (79°F)
Dewpoint: 10.0°C (50°F) [RH = 37%]
Pressure (altimeter): 29.94 inches Hg (1014.0 mb)
Winds: from the W (280 degrees) at 7 MPH (6 knots; 3.1 m/s)
Visibility: 6 or more miles (10+ km)
Ceiling: at least 12,000 feet AGL
Clouds: few clouds at 10000 feet AGL
Weather: no significant weather observed at this time

METAR text: UBBG 190330Z 24004KT 9999 FEW100 24/10 Q1014 R30/CLRD// NOSIG
Conditions at: UBBG (GYANDZHA , AZ) observed 0330 UTC 19 August 2019
Temperature: 24.0°C (75°F)
Dewpoint: 10.0°C (50°F) [RH = 41%]
Pressure (altimeter): 29.94 inches Hg (1014.0 mb)
Winds: from the WSW (240 degrees) at 5 MPH (4 knots; 2.1 m/s)
Visibility: 6 or more miles (10+ km)
Ceiling: at least 12,000 feet AGL
Clouds: few clouds at 10000 feet AGL
Weather: no significant weather observed at this time

METAR text: UBBG 190300Z 25006KT 9999 SCT100 23/10 Q1014 R30/CLRD// NOSIG
Conditions at: UBBG (GYANDZHA , AZ) observed 0300 UTC 19 August 2019
Temperature: 23.0°C (73°F)
Dewpoint: 10.0°C (50°F) [RH = 44%]
Pressure (altimeter): 29.94 inches Hg (1014.0 mb)
Winds: from the WSW (250 degrees) at 7 MPH (6 knots; 3.1 m/s)
Visibility: 6 or more miles (10+ km)
Ceiling: at least 12,000 feet AGL
Clouds: scattered clouds at 10000 feet AGL
Weather: no significant weather observed at this time

METAR text: UBBG 190230Z 25004KT 9999 SCT100 23/10 Q1014 R30/CLRD// NOSIG
Conditions at: UBBG (GYANDZHA , AZ) observed 0230 UTC 19 August 2019
Temperature: 23.0°C (73°F)
Dewpoint: 10.0°C (50°F) [RH = 44%]
Pressure (altimeter): 29.94 inches Hg (1014.0 mb)
Winds: from the WSW (250 degrees) at 5 MPH (4 knots; 2.1 m/s)
Visibility: 6 or more miles (10+ km)
Ceiling: at least 12,000 feet AGL
Clouds: scattered clouds at 10000 feet AGL
Weather: no significant weather observed at this time

METAR text: UBBG 190200Z 25006KT 9999 SCT100 23/09 Q1014 R30/CLRD// NOSIG
Conditions at: UBBG (GYANDZHA , AZ) observed 0200 UTC 19 August 2019
Temperature: 23.0°C (73°F)
Dewpoint: 9.0°C (48°F) [RH = 41%]
Pressure (altimeter): 29.94 inches Hg (1014.0 mb)
Winds: from the WSW (250 degrees) at 7 MPH (6 knots; 3.1 m/s)
Visibility: 6 or more miles (10+ km)
Ceiling: at least 12,000 feet AGL
Clouds: scattered clouds at 10000 feet AGL
Weather: no significant weather observed at this time

METAR text: UBBG 190130Z 26004KT 9999 SCT100 23/09 Q1013 R30/CLRD// NOSIG
Conditions at: UBBG (GYANDZHA , AZ) observed 0130 UTC 19 August 2019
Temperature: 23.0°C (73°F)
Dewpoint: 9.0°C (48°F) [RH = 41%]
Pressure (altimeter): 29.91 inches Hg (1013.0 mb)
Winds: from the W (260 degrees) at 5 MPH (4 knots; 2.1 m/s)
Visibility: 6 or more miles (10+ km)
Ceiling: at least 12,000 feet AGL
Clouds: scattered clouds at 10000 feet AGL
Weather: no significant weather observed at this time

METAR text: UBBG 190100Z 28006KT 9999 SCT100 23/09 Q1013 R30/CLRD// NOSIG
Conditions at: UBBG (GYANDZHA , AZ) observed 0100 UTC 19 August 2019
Temperature: 23.0°C (73°F)
Dewpoint: 9.0°C (48°F) [RH = 41%]
Pressure (altimeter): 29.91 inches Hg (1013.0 mb)
Winds: from the W (280 degrees) at 7 MPH (6 knots; 3.1 m/s)
Visibility: 6 or more miles (10+ km)
Ceiling: at least 12,000 feet AGL
Clouds: scattered clouds at 10000 feet AGL
Weather: no significant weather observed at this time

METAR text: UBBG 190030Z 24002KT 9999 SCT100 23/08 Q1013 R30/CLRD// NOSIG
Conditions at: UBBG (GYANDZHA , AZ) observed 0030 UTC 19 August 2019
Temperature: 23.0°C (73°F)
Dewpoint: 8.0°C (46°F) [RH = 38%]
Pressure (altimeter): 29.91 inches Hg (1013.0 mb)
Winds: from the WSW (240 degrees) at 2 MPH (2 knots; 1.0 m/s)
Visibility: 6 or more miles (10+ km)
Ceiling: at least 12,000 feet AGL
Clouds: scattered clouds at 10000 feet AGL
Weather: no significant weather observed at this time

METAR text: UBBG 190000Z 24006KT 9999 SCT100 23/08 Q1013 R30/CLRD// NOSIG
Conditions at: UBBG (GYANDZHA , AZ) observed 0000 UTC 19 August 2019
Temperature: 23.0°C (73°F)
Dewpoint: 8.0°C (46°F) [RH = 38%]
Pressure (altimeter): 29.91 inches Hg (1013.0 mb)
Winds: from the WSW (240 degrees) at 7 MPH (6 knots; 3.1 m/s)
Visibility: 6 or more miles (10+ km)
Ceiling: at least 12,000 feet AGL
Clouds: scattered clouds at 10000 feet AGL
Weather: no significant weather observed at this time

METAR text: UBBG 182330Z 22006KT 9999 SCT100 24/10 Q10G
Conditions at: UBBG (GYANDZHA , AZ) observed 2330 UTC 18 August 2019
Temperature: 24.0°C (75°F)
Dewpoint: 10.0°C (50°F) [RH = 41%]
Pressure (altimeter): missing
Winds: from the SW (220 degrees) at 7 MPH (6 knots; 3.1 m/s)
Visibility: 6 or more miles (10+ km)
Ceiling: at least 12,000 feet AGL
Clouds: scattered clouds at 10000 feet AGL
Weather: no significant weather observed at this time

METAR text: UBBG 182300Z 23006KT 9999 SCT100 24/10 Q1012 R30/CLRD// NOSIG
Conditions at: UBBG (GYANDZHA , AZ) observed 2300 UTC 18 August 2019
Temperature: 24.0°C (75°F)
Dewpoint: 10.0°C (50°F) [RH = 41%]
Pressure (altimeter): 29.88 inches Hg (1012.0 mb)
Winds: from the SW (230 degrees) at 7 MPH (6 knots; 3.1 m/s)
Visibility: 6 or more miles (10+ km)
Ceiling: at least 12,000 feet AGL
Clouds: scattered clouds at 10000 feet AGL
Weather: no significant weather observed at this time

METAR text: UBBG 182230Z 22006KT 9999 SCT100 24/10 Q1012 R30/CLRD// NOSIG
Conditions at: UBBG (GYANDZHA , AZ) observed 2230 UTC 18 August 2019
Temperature: 24.0°C (75°F)
Dewpoint: 10.0°C (50°F) [RH = 41%]
Pressure (altimeter): 29.88 inches Hg (1012.0 mb)
Winds: from the SW (220 degrees) at 7 MPH (6 knots; 3.1 m/s)
Visibility: 6 or more miles (10+ km)
Ceiling: at least 12,000 feet AGL
Clouds: scattered clouds at 10000 feet AGL
Weather: no significant weather observed at this time

METAR text: UBBG 182200Z 23006KT 9999 SCT100 24/10 Q1012 R30/CLRD// NOSIG
Conditions at: UBBG (GYANDZHA , AZ) observed 2200 UTC 18 August 2019
Temperature: 24.0°C (75°F)
Dewpoint: 10.0°C (50°F) [RH = 41%]
Pressure (altimeter): 29.88 inches Hg (1012.0 mb)
Winds: from the SW (230 degrees) at 7 MPH (6 knots; 3.1 m/s)
Visibility: 6 or more miles (10+ km)
Ceiling: at least 12,000 feet AGL
Clouds: scattered clouds at 10000 feet AGL
Weather: no significant weather observed at this time

METAR text: UBBG 182130Z 23006KT 9999 SCT100 24/10 Q1012 R30/CLRD// NOSIG
Conditions at: UBBG (GYANDZHA , AZ) observed 2130 UTC 18 August 2019
Temperature: 24.0°C (75°F)
Dewpoint: 10.0°C (50°F) [RH = 41%]
Pressure (altimeter): 29.88 inches Hg (1012.0 mb)
Winds: from the SW (230 degrees) at 7 MPH (6 knots; 3.1 m/s)
Visibility: 6 or more miles (10+ km)
Ceiling: at least 12,000 feet AGL
Clouds: scattered clouds at 10000 feet AGL
Weather: no significant weather observed at this time

METAR text: UBBG 182030Z 27006KT 9999 SCT100 24/09 Q1012 R30/CLRD// NOSIG
Conditions at: UBBG (GYANDZHA , AZ) observed 2030 UTC 18 August 2019
Temperature: 24.0°C (75°F)
Dewpoint: 9.0°C (48°F) [RH = 38%]
Pressure (altimeter): 29.88 inches Hg (1012.0 mb)
Winds: from the W (270 degrees) at 7 MPH (6 knots; 3.1 m/s)
Visibility: 6 or more miles (10+ km)
Ceiling: at least 12,000 feet AGL
Clouds: scattered clouds at 10000 feet AGL
Weather: no significant weather observed at this time

METAR text: UBBG 182000Z VRB02KT 9999 SCT100 25/09 Q1012 R30/CLRD// NOSIG
Conditions at: UBBG (GYANDZHA , AZ) observed 2000 UTC 18 August 2019
Temperature: 25.0°C (77°F)
Dewpoint: 9.0°C (48°F) [RH = 36%]
Pressure (altimeter): 29.88 inches Hg (1012.0 mb)
Winds: variable direction winds at 2 MPH (2 knots; 1.0 m/s)
Visibility: 6 or more miles (10+ km)
Ceiling: at least 12,000 feet AGL
Clouds: scattered clouds at 10000 feet AGL
Weather: no significant weather observed at this time

METAR text: UBBG 181930Z 29006KT 9999 SCT100 26/09 Q1011 R30/CLRD// NOSIG
Conditions at: UBBG (GYANDZHA , AZ) observed 1930 UTC 18 August 2019
Temperature: 26.0°C (79°F)
Dewpoint: 9.0°C (48°F) [RH = 34%]
Pressure (altimeter): 29.85 inches Hg (1011.0 mb)
Winds: from the WNW (290 degrees) at 7 MPH (6 knots; 3.1 m/s)
Visibility: 6 or more miles (10+ km)
Ceiling: at least 12,000 feet AGL
Clouds: scattered clouds at 10000 feet AGL
Weather: no significant weather observed at this time

METAR text: UBBG 181900Z 29008KT 9999 SCT100 26/10 Q1011 R30/CLRD// NOSIG
Conditions at: UBBG (GYANDZHA , AZ) observed 1900 UTC 18 August 2019
Temperature: 26.0°C (79°F)
Dewpoint: 10.0°C (50°F) [RH = 37%]
Pressure (altimeter): 29.85 inches Hg (1011.0 mb)
Winds: from the WNW (290 degrees) at 9 MPH (8 knots; 4.1 m/s)
Visibility: 6 or more miles (10+ km)
Ceiling: at least 12,000 feet AGL
Clouds: scattered clouds at 10000 feet AGL
Weather: no significant weather observed at this time

METAR text: UBBG 181830Z 28006KT 9999 SCT100 26/09 Q1011 R30/CLRD// NOSIG
Conditions at: UBBG (GYANDZHA , AZ) observed 1830 UTC 18 August 2019
Temperature: 26.0°C (79°F)
Dewpoint: 9.0°C (48°F) [RH = 34%]
Pressure (altimeter): 29.85 inches Hg (1011.0 mb)
Winds: from the W (280 degrees) at 7 MPH (6 knots; 3.1 m/s)
Visibility: 6 or more miles (10+ km)
Ceiling: at least 12,000 feet AGL
Clouds: scattered clouds at 10000 feet AGL
Weather: no significant weather observed at this time

METAR text: UBBG 181800Z 28006KT 9999 SCT100 26/09 Q1011 R30/CLRD// NOSIG
Conditions at: UBBG (GYANDZHA , AZ) observed 1800 UTC 18 August 2019
Temperature: 26.0°C (79°F)
Dewpoint: 9.0°C (48°F) [RH = 34%]
Pressure (altimeter): 29.85 inches Hg (1011.0 mb)
Winds: from the W (280 degrees) at 7 MPH (6 knots; 3.1 m/s)
Visibility: 6 or more miles (10+ km)
Ceiling: at least 12,000 feet AGL
Clouds: scattered clouds at 10000 feet AGL
Weather: no significant weather observed at this time

METAR text: UBBG 181730Z 29004KT 9999 SCT100 27/09 Q1011 R30/CLRD// NOSIG
Conditions at: UBBG (GYANDZHA , AZ) observed 1730 UTC 18 August 2019
Temperature: 27.0°C (81°F)
Dewpoint: 9.0°C (48°F) [RH = 32%]
Pressure (altimeter): 29.85 inches Hg (1011.0 mb)
Winds: from the WNW (290 degrees) at 5 MPH (4 knots; 2.1 m/s)
Visibility: 6 or more miles (10+ km)
Ceiling: at least 12,000 feet AGL
Clouds: scattered clouds at 10000 feet AGL
Weather: no significant weather observed at this time

METAR text: UBBG 181700Z 29004KT 250V320 9999 SCT100 28/10 Q1011 R30/CLRD// NOSIG
Conditions at: UBBG (GYANDZHA , AZ) observed 1700 UTC 18 August 2019
Temperature: 28.0°C (82°F)
Dewpoint: 10.0°C (50°F) [RH = 32%]
Pressure (altimeter): 29.85 inches Hg (1011.0 mb)
Winds: from the WNW (290 degrees) at 5 MPH (4 knots; 2.1 m/s)
Visibility: 6 or more miles (10+ km)
Ceiling: at least 12,000 feet AGL
Clouds: scattered clouds at 10000 feet AGL
Weather: no significant weather observed at this time

METAR text: UBBG 181600Z 32004KT 9999 SCT100 29/10 Q1010 R12/CLRD// NOSIG
Conditions at: UBBG (GYANDZHA , AZ) observed 1600 UTC 18 August 2019
Temperature: 29.0°C (84°F)
Dewpoint: 10.0°C (50°F) [RH = 31%]
Pressure (altimeter): 29.82 inches Hg (1010.0 mb)
Winds: from the NW (320 degrees) at 5 MPH (4 knots; 2.1 m/s)
Visibility: 6 or more miles (10+ km)
Ceiling: at least 12,000 feet AGL
Clouds: scattered clouds at 10000 feet AGL
Weather: no significant weather observed at this time

METAR text: UBBG 181500Z 07006KT 9999 SCT100 31/09 Q1009 R12/CLRD// NOSIG
Conditions at: UBBG (GYANDZHA , AZ) observed 1500 UTC 18 August 2019
Temperature: 31.0°C (88°F)
Dewpoint: 9.0°C (48°F) [RH = 26%]
Pressure (altimeter): 29.79 inches Hg (1009.0 mb)
Winds: from the ENE (70 degrees) at 7 MPH (6 knots; 3.1 m/s)
Visibility: 6 or more miles (10+ km)
Ceiling: at least 12,000 feet AGL
Clouds: scattered clouds at 10000 feet AGL
Weather: no significant weather observed at this time

METAR text: UBBG 181430Z 08008KT 9999 BKN100 32/09 Q1009 R12/CLRD// NOSIG
Conditions at: UBBG (GYANDZHA , AZ) observed 1430 UTC 18 August 2019
Temperature: 32.0°C (90°F)
Dewpoint: 9.0°C (48°F) [RH = 24%]
Pressure (altimeter): 29.79 inches Hg (1009.0 mb)
Winds: from the E (80 degrees) at 9 MPH (8 knots; 4.1 m/s)
Visibility: 6 or more miles (10+ km)
Ceiling: 10000 feet AGL
Clouds: broken clouds at 10000 feet AGL
Weather: no significant weather observed at this time

METAR text: UBBG 181330Z 05006KT 9999 BKN100 32/09 Q1009 R12/CLRD// NOSIG
Conditions at: UBBG (GYANDZHA , AZ) observed 1330 UTC 18 August 2019
Temperature: 32.0°C (90°F)
Dewpoint: 9.0°C (48°F) [RH = 24%]
Pressure (altimeter): 29.79 inches Hg (1009.0 mb)
Winds: from the NE (50 degrees) at 7 MPH (6 knots; 3.1 m/s)
Visibility: 6 or more miles (10+ km)
Ceiling: 10000 feet AGL
Clouds: broken clouds at 10000 feet AGL
Weather: no significant weather observed at this time

METAR text: UBBG 181300Z 05008KT 9999 BKN100 33/09 Q1010 R12/CLRD// NOSIG
Conditions at: UBBG (GYANDZHA , AZ) observed 1300 UTC 18 August 2019
Temperature: 33.0°C (91°F)
Dewpoint: 9.0°C (48°F) [RH = 23%]
Pressure (altimeter): 29.82 inches Hg (1010.0 mb)
Winds: from the NE (50 degrees) at 9 MPH (8 knots; 4.1 m/s)
Visibility: 6 or more miles (10+ km)
Ceiling: 10000 feet AGL
Clouds: broken clouds at 10000 feet AGL
Weather: no significant weather observed at this time

METAR text: UBBG 181230Z 07010KT 9999 SCT100 33/08 Q1010 R12/CLRD// NOSIG
Conditions at: UBBG (GYANDZHA , AZ) observed 1230 UTC 18 August 2019
Temperature: 33.0°C (91°F)
Dewpoint: 8.0°C (46°F) [RH = 21%]
Pressure (altimeter): 29.82 inches Hg (1010.0 mb)
Winds: from the ENE (70 degrees) at 12 MPH (10 knots; 5.1 m/s)
Visibility: 6 or more miles (10+ km)
Ceiling: at least 12,000 feet AGL
Clouds: scattered clouds at 10000 feet AGL
Weather: no significant weather observed at this time

METAR text: UBBG 181200Z 08008KT 040V110 9999 SCT100 33/06 Q1010 R12/CLRD// NOSIG
Conditions at: UBBG (GYANDZHA , AZ) observed 1200 UTC 18 August 2019
Temperature: 33.0°C (91°F)
Dewpoint: 6.0°C (43°F) [RH = 19%]
Pressure (altimeter): 29.82 inches Hg (1010.0 mb)
Winds: from the E (80 degrees) at 9 MPH (8 knots; 4.1 m/s)
Visibility: 6 or more miles (10+ km)
Ceiling: at least 12,000 feet AGL
Clouds: scattered clouds at 10000 feet AGL
Weather: no significant weather observed at this time

METAR text: UBBG 181130Z 09008KT 050V130 9999 SCT100 34/05 Q1010 R12/CLRD// NOSIG
Conditions at: UBBG (GYANDZHA , AZ) observed 1130 UTC 18 August 2019
Temperature: 34.0°C (93°F)
Dewpoint: 5.0°C (41°F) [RH = 16%]
Pressure (altimeter): 29.82 inches Hg (1010.0 mb)
Winds: from the E (90 degrees) at 9 MPH (8 knots; 4.1 m/s)
Visibility: 6 or more miles (10+ km)
Ceiling: at least 12,000 feet AGL
Clouds: scattered clouds at 10000 feet AGL
Weather: no significant weather observed at this time

METAR text: UBBG 181030Z 04008KT 330V110 9999 BKN100 33/07 Q1010 R12/CLRD// NOSIG
Conditions at: UBBG (GYANDZHA , AZ) observed 1030 UTC 18 August 2019
Temperature: 33.0°C (91°F)
Dewpoint: 7.0°C (45°F) [RH = 20%]
Pressure (altimeter): 29.82 inches Hg (1010.0 mb)
Winds: from the NE (40 degrees) at 9 MPH (8 knots; 4.1 m/s)
Visibility: 6 or more miles (10+ km)
Ceiling: 10000 feet AGL
Clouds: broken clouds at 10000 feet AGL
Weather: no significant weather observed at this time

METAR text: UBBG 181000Z 08010KT 040V120 9999 BKN100 32/08 Q1011 R12/CLRD// NOSIG
Conditions at: UBBG (GYANDZHA , AZ) observed 1000 UTC 18 August 2019
Temperature: 32.0°C (90°F)
Dewpoint: 8.0°C (46°F) [RH = 23%]
Pressure (altimeter): 29.85 inches Hg (1011.0 mb)
Winds: from the E (80 degrees) at 12 MPH (10 knots; 5.1 m/s)
Visibility: 6 or more miles (10+ km)
Ceiling: 10000 feet AGL
Clouds: broken clouds at 10000 feet AGL
Weather: no significant weather observed at this time

METAR text: UBBG 180930Z 07010KT 9999 BKN100 32/10 Q1011 R12/CLRD// NOSIG
Conditions at: UBBG (GYANDZHA , AZ) observed 0930 UTC 18 August 2019
Temperature: 32.0°C (90°F)
Dewpoint: 10.0°C (50°F) [RH = 26%]
Pressure (altimeter): 29.85 inches Hg (1011.0 mb)
Winds: from the ENE (70 degrees) at 12 MPH (10 knots; 5.1 m/s)
Visibility: 6 or more miles (10+ km)
Ceiling: 10000 feet AGL
Clouds: broken clouds at 10000 feet AGL
Weather: no significant weather observed at this time

METAR text: UBBG 180900Z 07010KT 030V100 9999 BKN100 31/08 Q1011 R12/CLRD// NOSIG
Conditions at: UBBG (GYANDZHA , AZ) observed 0900 UTC 18 August 2019
Temperature: 31.0°C (88°F)
Dewpoint: 8.0°C (46°F) [RH = 24%]
Pressure (altimeter): 29.85 inches Hg (1011.0 mb)
Winds: from the ENE (70 degrees) at 12 MPH (10 knots; 5.1 m/s)
Visibility: 6 or more miles (10+ km)
Ceiling: 10000 feet AGL
Clouds: broken clouds at 10000 feet AGL
Weather: no significant weather observed at this time

METAR text: UBBG 180830Z 08008KT 050V110 9999 BKN100 31/13 Q1011 R12/CLRD// NOSIG
Conditions at: UBBG (GYANDZHA , AZ) observed 0830 UTC 18 August 2019
Temperature: 31.0°C (88°F)
Dewpoint: 13.0°C (55°F) [RH = 33%]
Pressure (altimeter): 29.85 inches Hg (1011.0 mb)
Winds: from the E (80 degrees) at 9 MPH (8 knots; 4.1 m/s)
Visibility: 6 or more miles (10+ km)
Ceiling: 10000 feet AGL
Clouds: broken clouds at 10000 feet AGL
Weather: no significant weather observed at this time

METAR text: UBBG 180630Z 03004KT 310V110 9999 BKN100 27/17 Q1012 R30/CLRD// NOSIG
Conditions at: UBBG (GYANDZHA , AZ) observed 0630 UTC 18 August 2019
Temperature: 27.0°C (81°F)
Dewpoint: 17.0°C (63°F) [RH = 54%]
Pressure (altimeter): 29.88 inches Hg (1012.0 mb)
Winds: from the NNE (30 degrees) at 5 MPH (4 knots; 2.1 m/s)
Visibility: 6 or more miles (10+ km)
Ceiling: 10000 feet AGL
Clouds: broken clouds at 10000 feet AGL
Weather: no significant weather observed at this time

METAR text: UBBG 180600Z 04004KT 9999 BKN100 26/17 Q1012 R30/CLRD// NOSI
Conditions at: UBBG (GYANDZHA , AZ) observed 0600 UTC 18 August 2019
Temperature: 26.0°C (79°F)
Dewpoint: 17.0°C (63°F) [RH = 58%]
Pressure (altimeter): 29.88 inches Hg (1012.0 mb)
Winds: from the NE (40 degrees) at 5 MPH (4 knots; 2.1 m/s)
Visibility: 6 or more miles (10+ km)
Ceiling: 10000 feet AGL
Clouds: broken clouds at 10000 feet AGL
Weather: no significant weather observed at this time

METAR text: UBBG 180500Z 06004KT 020V130 9999 BKN100 24/17 Q1011 R30/CLRD// NOSIG
Conditions at: UBBG (GYANDZHA , AZ) observed 0500 UTC 18 August 2019
Temperature: 24.0°C (75°F)
Dewpoint: 17.0°C (63°F) [RH = 65%]
Pressure (altimeter): 29.85 inches Hg (1011.0 mb)
Winds: from the ENE (60 degrees) at 5 MPH (4 knots; 2.1 m/s)
Visibility: 6 or more miles (10+ km)
Ceiling: 10000 feet AGL
Clouds: broken clouds at 10000 feet AGL
Weather: no significant weather observed at this time

METAR text: UBBG 180430Z 08004KT 040V120 9999 BKN100 24/17 Q1011 R30/CLRD// NOSIG
Conditions at: UBBG (GYANDZHA , AZ) observed 0430 UTC 18 August 2019
Temperature: 24.0°C (75°F)
Dewpoint: 17.0°C (63°F) [RH = 65%]
Pressure (altimeter): 29.85 inches Hg (1011.0 mb)
Winds: from the E (80 degrees) at 5 MPH (4 knots; 2.1 m/s)
Visibility: 6 or more miles (10+ km)
Ceiling: 10000 feet AGL
Clouds: broken clouds at 10000 feet AGL
Weather: no significant weather observed at this time

METAR text: UBBG 180330Z 30004KT 240V350 9999 BKN100 23/16 Q1011 R12/CLRD// NOSIG
Conditions at: UBBG (GYANDZHA , AZ) observed 0330 UTC 18 August 2019
Temperature: 23.0°C (73°F)
Dewpoint: 16.0°C (61°F) [RH = 65%]
Pressure (altimeter): 29.85 inches Hg (1011.0 mb)
Winds: from the WNW (300 degrees) at 5 MPH (4 knots; 2.1 m/s)
Visibility: 6 or more miles (10+ km)
Ceiling: 10000 feet AGL
Clouds: broken clouds at 10000 feet AGL
Weather: no significant weather observed at this time

METAR text: UBBG 180300Z VBKN100 21/16 Q1011 R12/CLRD// NOSIG
Conditions at: UBBG (GYANDZHA , AZ) observed 0300 UTC 18 August 2019
Temperature: 21.0°C (70°F)
Dewpoint: 16.0°C (61°F) [RH = 73%]
Pressure (altimeter): 29.85 inches Hg (1011.0 mb)
Winds: missing
Visibility: missing
Ceiling: 10000 feet AGL
Clouds: broken clouds at 10000 feet AGL
Weather: no significant weather observed at this time

METAR text: UBBG 180230Z 31004KT 9999 BKN100 21/16 Q1011 R12/CLRD// NOSIG
Conditions at: UBBG (GYANDZHA , AZ) observed 0230 UTC 18 August 2019
Temperature: 21.0°C (70°F)
Dewpoint: 16.0°C (61°F) [RH = 73%]
Pressure (altimeter): 29.85 inches Hg (1011.0 mb)
Winds: from the NW (310 degrees) at 5 MPH (4 knots; 2.1 m/s)
Visibility: 6 or more miles (10+ km)
Ceiling: 10000 feet AGL
Clouds: broken clouds at 10000 feet AGL
Weather: no significant weather observed at this time

METAR text: UBBG 180200Z 28006KT 9999 BKN100 20/15 Q1011 R12/CLRD// NOSIG
Conditions at: UBBG (GYANDZHA , AZ) observed 0200 UTC 18 August 2019
Temperature: 20.0°C (68°F)
Dewpoint: 15.0°C (59°F) [RH = 73%]
Pressure (altimeter): 29.85 inches Hg (1011.0 mb)
Winds: from the W (280 degrees) at 7 MPH (6 knots; 3.1 m/s)
Visibility: 6 or more miles (10+ km)
Ceiling: 10000 feet AGL
Clouds: broken clouds at 10000 feet AGL
Weather: no significant weather observed at this time

METAR text: UBBG 180130Z 28004KT 9999 BKN100 21/15 Q1010 R12/CLRD// NOSIG
Conditions at: UBBG (GYANDZHA , AZ) observed 0130 UTC 18 August 2019
Temperature: 21.0°C (70°F)
Dewpoint: 15.0°C (59°F) [RH = 69%]
Pressure (altimeter): 29.82 inches Hg (1010.0 mb)
Winds: from the W (280 degrees) at 5 MPH (4 knots; 2.1 m/s)
Visibility: 6 or more miles (10+ km)
Ceiling: 10000 feet AGL
Clouds: broken clouds at 10000 feet AGL
Weather: no significant weather observed at this time

METAR text: UBBG 180100Z 10004KT 9999 BKN100 21/15 Q1010 R12/CLRD// NOSIG
Conditions at: UBBG (GYANDZHA , AZ) observed 0100 UTC 18 August 2019
Temperature: 21.0°C (70°F)
Dewpoint: 15.0°C (59°F) [RH = 69%]
Pressure (altimeter): 29.82 inches Hg (1010.0 mb)
Winds: from the E (100 degrees) at 5 MPH (4 knots; 2.1 m/s)
Visibility: 6 or more miles (10+ km)
Ceiling: 10000 feet AGL
Clouds: broken clouds at 10000 feet AGL
Weather: no significant weather observed at this time

METAR text: UBBG 180030Z 090061/16 Q1010 R12/CLRD// NOSIG
Conditions at: UBBG (GYANDZHA , AZ) observed 0030 UTC 18 August 2019
Temperature: 0.0°C (32°F)
Dewpoint: 16.0°C (61°F) [RH = 298%]
Pressure (altimeter): 29.82 inches Hg (1010.0 mb)
Winds: missing
Visibility: missing
Ceiling: unknown
Clouds: missing
Weather: no significant weather observed at this time

METAR text: UBBG 180000Z 11004KT 9999 BKN100 22/16 Q1010 R12/CLRD// NOSIG
Conditions at: UBBG (GYANDZHA , AZ) observed 0000 UTC 18 August 2019
Temperature: 22.0°C (72°F)
Dewpoint: 16.0°C (61°F) [RH = 69%]
Pressure (altimeter): 29.82 inches Hg (1010.0 mb)
Winds: from the ESE (110 degrees) at 5 MPH (4 knots; 2.1 m/s)
Visibility: 6 or more miles (10+ km)
Ceiling: 10000 feet AGL
Clouds: broken clouds at 10000 feet AGL
Weather: no significant weather observed at this time

METAR text: UBBG 172330Z 10006KT 9999 BKN100 22/1610 R12/CLRD// NOSIG
Conditions at: UBBG (GYANDZHA , AZ) observed 2330 UTC 17 August 2019
Temperature: missing
Dewpoint: missing
Pressure (altimeter): missing
Winds: from the E (100 degrees) at 7 MPH (6 knots; 3.1 m/s)
Visibility: 6 or more miles (10+ km)
Ceiling: 10000 feet AGL
Clouds: broken clouds at 10000 feet AGL
Weather: no significant weather observed at this time

METAR text: UBBG 172300Z 10006KT 9999 BKN100 23/16 Q1010 R12/CLRD// NOSIG
Conditions at: UBBG (GYANDZHA , AZ) observed 2300 UTC 17 August 2019
Temperature: 23.0°C (73°F)
Dewpoint: 16.0°C (61°F) [RH = 65%]
Pressure (altimeter): 29.82 inches Hg (1010.0 mb)
Winds: from the E (100 degrees) at 7 MPH (6 knots; 3.1 m/s)
Visibility: 6 or more miles (10+ km)
Ceiling: 10000 feet AGL
Clouds: broken clouds at 10000 feet AGL
Weather: no significant weather observed at this time

METAR text: UBBG 172200Z 09008KT 9999 FEW100 24/17 Q1010 R12/CLRD// NOSIG
Conditions at: UBBG (GYANDZHA , AZ) observed 2200 UTC 17 August 2019
Temperature: 24.0°C (75°F)
Dewpoint: 17.0°C (63°F) [RH = 65%]
Pressure (altimeter): 29.82 inches Hg (1010.0 mb)
Winds: from the E (90 degrees) at 9 MPH (8 knots; 4.1 m/s)
Visibility: 6 or more miles (10+ km)
Ceiling: at least 12,000 feet AGL
Clouds: few clouds at 10000 feet AGL
Weather: no significant weather observed at this time

METAR text: UBBG 172100Z 09006KT 9999 FEW100 24/16 Q1010 R12/CLRD// NOSIG
Conditions at: UBBG (GYANDZHA , AZ) observed 2100 UTC 17 August 2019
Temperature: 24.0°C (75°F)
Dewpoint: 16.0°C (61°F) [RH = 61%]
Pressure (altimeter): 29.82 inches Hg (1010.0 mb)
Winds: from the E (90 degrees) at 7 MPH (6 knots; 3.1 m/s)
Visibility: 6 or more miles (10+ km)
Ceiling: at least 12,000 feet AGL
Clouds: few clouds at 10000 feet AGL
Weather: no significant weather observed at this time

METAR text: UBBG 172030Z 11008KT 9999 FEW100 26/15 Q1010 R12/CLRD// NOSIG
Conditions at: UBBG (GYANDZHA , AZ) observed 2030 UTC 17 August 2019
Temperature: 26.0°C (79°F)
Dewpoint: 15.0°C (59°F) [RH = 51%]
Pressure (altimeter): 29.82 inches Hg (1010.0 mb)
Winds: from the ESE (110 degrees) at 9 MPH (8 knots; 4.1 m/s)
Visibility: 6 or more miles (10+ km)
Ceiling: at least 12,000 feet AGL
Clouds: few clouds at 10000 feet AGL
Weather: no significant weather observed at this time

METAR text: UBBG 171930Z 05004KT 9999 FEW100 25/13 Q1009 R12/CLRD// NOSIG
Conditions at: UBBG (GYANDZHA , AZ) observed 1930 UTC 17 August 2019
Temperature: 25.0°C (77°F)
Dewpoint: 13.0°C (55°F) [RH = 47%]
Pressure (altimeter): 29.79 inches Hg (1009.0 mb)
Winds: from the NE (50 degrees) at 5 MPH (4 knots; 2.1 m/s)
Visibility: 6 or more miles (10+ km)
Ceiling: at least 12,000 feet AGL
Clouds: few clouds at 10000 feet AGL
Weather: no significant weather observed at this time

METAR text: UBBG 171900Z 05004KT 9999 FEW100 26/13 Q1009 R12/CLRD// NOSIG
Conditions at: UBBG (GYANDZHA , AZ) observed 1900 UTC 17 August 2019
Temperature: 26.0°C (79°F)
Dewpoint: 13.0°C (55°F) [RH = 45%]
Pressure (altimeter): 29.79 inches Hg (1009.0 mb)
Winds: from the NE (50 degrees) at 5 MPH (4 knots; 2.1 m/s)
Visibility: 6 or more miles (10+ km)
Ceiling: at least 12,000 feet AGL
Clouds: few clouds at 10000 feet AGL
Weather: no significant weather observed at this time

METAR text: UBBG 171830Z VRB02KT 9999 FEW100 26/13 Q1009 R12/CLRD// NOSIG
Conditions at: UBBG (GYANDZHA , AZ) observed 1830 UTC 17 August 2019
Temperature: 26.0°C (79°F)
Dewpoint: 13.0°C (55°F) [RH = 45%]
Pressure (altimeter): 29.79 inches Hg (1009.0 mb)
Winds: variable direction winds at 2 MPH (2 knots; 1.0 m/s)
Visibility: 6 or more miles (10+ km)
Ceiling: at least 12,000 feet AGL
Clouds: few clouds at 10000 feet AGL
Weather: no significant weather observed at this time

METAR text: UBBG 171800Z 00000KT 9999 FEW100 26/13 Q1009 R12/CLRD// NOSIG
Conditions at: UBBG (GYANDZHA , AZ) observed 1800 UTC 17 August 2019
Temperature: 26.0°C (79°F)
Dewpoint: 13.0°C (55°F) [RH = 45%]
Pressure (altimeter): 29.79 inches Hg (1009.0 mb)
Winds: calm
Visibility: 6 or more miles (10+ km)
Ceiling: at least 12,000 feet AGL
Clouds: few clouds at 10000 feet AGL
Weather: no significant weather observed at this time

METAR text: UBBG 171730Z 08004KT 9999 FEW100 27/13 Q1009 R12/CLRD// NOSIG
Conditions at: UBBG (GYANDZHA , AZ) observed 1730 UTC 17 August 2019
Temperature: 27.0°C (81°F)
Dewpoint: 13.0°C (55°F) [RH = 42%]
Pressure (altimeter): 29.79 inches Hg (1009.0 mb)
Winds: from the E (80 degrees) at 5 MPH (4 knots; 2.1 m/s)
Visibility: 6 or more miles (10+ km)
Ceiling: at least 12,000 feet AGL
Clouds: few clouds at 10000 feet AGL
Weather: no significant weather observed at this time

METAR text: UBBG 171700Z 09006KT 9999 SCT100 29/13 Q1008 R12/CLRD// NOSIG
Conditions at: UBBG (GYANDZHA , AZ) observed 1700 UTC 17 August 2019
Temperature: 29.0°C (84°F)
Dewpoint: 13.0°C (55°F) [RH = 37%]
Pressure (altimeter): 29.76 inches Hg (1008.0 mb)
Winds: from the E (90 degrees) at 7 MPH (6 knots; 3.1 m/s)
Visibility: 6 or more miles (10+ km)
Ceiling: at least 12,000 feet AGL
Clouds: scattered clouds at 10000 feet AGL
Weather: no significant weather observed at this time

METAR text: UBBG 171630Z 09006KT 9999 SCT100 29/13 Q1008 R12/CLRD// NOSIG
Conditions at: UBBG (GYANDZHA , AZ) observed 1630 UTC 17 August 2019
Temperature: 29.0°C (84°F)
Dewpoint: 13.0°C (55°F) [RH = 37%]
Pressure (altimeter): 29.76 inches Hg (1008.0 mb)
Winds: from the E (90 degrees) at 7 MPH (6 knots; 3.1 m/s)
Visibility: 6 or more miles (10+ km)
Ceiling: at least 12,000 feet AGL
Clouds: scattered clouds at 10000 feet AGL
Weather: no significant weather observed at this time

Forecast for: UBBG (GYANDZHA , AZ)
Text: TAF UBBG 182259Z 1900/1924 VRB04KT 9999 FEW040 SCT100 TX35/1912Z TN21/1902Z
Forecast period: 0000 to 0600 UTC 19 August 2019
Forecast type: FROM: standard forecast or significant change
Winds: variable direction winds at 5 MPH (4 knots; 2.1 m/s)
Visibility: 6 or more miles 10+ km)
Ceiling: at least 12,000 feet AGL
Clouds: few clouds at 4000 feet AGL
scattered clouds at 10000 feet AGL
Weather: no significant weather forecast for this period
Text: BECMG 1906/1908 08012KT
Forecast period: 0600 UTC 19 August 2019 to 0000 UTC 20 August 2019
Forecast type: BECOMING: Conditions expected to become as follows by 0800 UTC 19 August 2019
Winds: from the E (80 degrees) at 14 MPH (12 knots; 6.2 m/s)
Visibility: 6 or more miles 10+ km)
Ceiling: at least 12,000 feet AGL
Clouds: few clouds at 4000 feet AGL
scattered clouds at 10000 feet AGL
Weather: no significant weather forecast for this period